Lakeside, Virginia
Current Conditions -  °F | °C
As of 10:54 PM on Tuesday 25 Nov 2014 (Local Time) from KOFP Reporting Station
Overcast Overcast  
Wind Chill: 50°   Ceiling: 10000
Heat Index: 50°   Visibility: 10mi
Dew Point: 39°   Wind: 0mph
Humidity: 66%   Direction: NA
Pressure: 30.15"   Gusts: NA
Location:  37.61°N, 77.48°W
Report Text: KOFP 260354Z AUTO 00000KT 10SM BKN100 OVC120 10/04 A3015 RMK AO2 SLP208 T01000039
Loading
Personal Weather Stations






























Interactive Weather Map New forecast layout! Learn more

10-Day Weather Forecast

Advertisements
Track Severe Weather on mobile